sensor_id;sensor_type;location;lat;lon;timestamp;P1;durP1;ratioP1;P2;durP2;ratioP2
24677;SDS011;12800;53.094;8.778;2023-03-23T00:01:48;9.30;;;7.73;;
24677;SDS011;12800;53.094;8.778;2023-03-23T00:04:18;9.53;;;7.43;;
24677;SDS011;12800;53.094;8.778;2023-03-23T00:06:43;8.33;;;7.33;;
24677;SDS011;12800;53.094;8.778;2023-03-23T00:09:10;9.00;;;7.47;;
24677;SDS011;12800;53.094;8.778;2023-03-23T00:11:37;8.13;;;7.10;;
24677;SDS011;12800;53.094;8.778;2023-03-23T00:14:04;7.93;;;7.13;;
24677;SDS011;12800;53.094;8.778;2023-03-23T00:16:30;8.40;;;7.57;;
24677;SDS011;12800;53.094;8.778;2023-03-23T00:18:59;8.57;;;7.30;;
24677;SDS011;12800;53.094;8.778;2023-03-23T00:21:27;10.13;;;7.53;;
24677;SDS011;12800;53.094;8.778;2023-03-23T00:23:59;8.20;;;7.37;;
24677;SDS011;12800;53.094;8.778;2023-03-23T00:26:45;10.27;;;8.20;;
24677;SDS011;12800;53.094;8.778;2023-03-23T00:29:16;9.37;;;8.03;;
24677;SDS011;12800;53.094;8.778;2023-03-23T00:31:46;9.87;;;8.87;;
24677;SDS011;12800;53.094;8.778;2023-03-23T00:34:13;9.67;;;8.37;;
24677;SDS011;12800;53.094;8.778;2023-03-23T00:36:43;9.80;;;8.57;;
24677;SDS011;12800;53.094;8.778;2023-03-23T00:39:09;9.73;;;8.63;;
24677;SDS011;12800;53.094;8.778;2023-03-23T00:41:35;9.97;;;8.97;;
24677;SDS011;12800;53.094;8.778;2023-03-23T00:44:01;9.97;;;8.97;;
24677;SDS011;12800;53.094;8.778;2023-03-23T00:46:28;13.10;;;10.03;;
24677;SDS011;12800;53.094;8.778;2023-03-23T00:48:54;9.60;;;8.57;;
24677;SDS011;12800;53.094;8.778;2023-03-23T00:51:21;9.57;;;8.10;;
24677;SDS011;12800;53.094;8.778;2023-03-23T00:53:48;9.00;;;8.20;;
24677;SDS011;12800;53.094;8.778;2023-03-23T00:56:14;9.07;;;8.17;;
24677;SDS011;12800;53.094;8.778;2023-03-23T00:58:40;8.53;;;7.70;;
24677;SDS011;12800;53.094;8.778;2023-03-23T01:01:06;8.93;;;8.07;;
24677;SDS011;12800;53.094;8.778;2023-03-23T01:03:32;9.50;;;8.17;;
24677;SDS011;12800;53.094;8.778;2023-03-23T01:06:03;8.97;;;7.60;;
24677;SDS011;12800;53.094;8.778;2023-03-23T01:08:37;9.50;;;8.50;;
24677;SDS011;12800;53.094;8.778;2023-03-23T01:11:11;9.93;;;7.87;;
24677;SDS011;12800;53.094;8.778;2023-03-23T01:13:39;8.73;;;7.87;;
24677;SDS011;12800;53.094;8.778;2023-03-23T01:16:08;8.33;;;7.30;;
24677;SDS011;12800;53.094;8.778;2023-03-23T01:18:36;8.63;;;7.70;;
24677;SDS011;12800;53.094;8.778;2023-03-23T01:21:09;10.50;;;7.90;;
24677;SDS011;12800;53.094;8.778;2023-03-23T01:23:41;8.93;;;8.03;;
24677;SDS011;12800;53.094;8.778;2023-03-23T01:26:08;9.50;;;7.43;;
24677;SDS011;12800;53.094;8.778;2023-03-23T01:28:45;9.57;;;7.47;;
24677;SDS011;12800;53.094;8.778;2023-03-23T01:31:13;9.07;;;7.87;;
24677;SDS011;12800;53.094;8.778;2023-03-23T01:33:43;9.57;;;7.33;;
24677;SDS011;12800;53.094;8.778;2023-03-23T01:36:13;11.40;;;7.97;;
24677;SDS011;12800;53.094;8.778;2023-03-23T01:38:41;8.27;;;7.47;;
24677;SDS011;12800;53.094;8.778;2023-03-23T01:41:08;10.60;;;8.13;;
24677;SDS011;12800;53.094;8.778;2023-03-23T01:43:35;9.70;;;7.90;;
24677;SDS011;12800;53.094;8.778;2023-03-23T01:46:01;13.57;;;12.17;;
24677;SDS011;12800;53.094;8.778;2023-03-23T01:48:31;9.77;;;8.77;;
24677;SDS011;12800;53.094;8.778;2023-03-23T01:53:42;9.80;;;8.47;;
24677;SDS011;12800;53.094;8.778;2023-03-23T01:56:14;9.97;;;8.60;;
24677;SDS011;12800;53.094;8.778;2023-03-23T01:58:44;10.70;;;8.90;;
24677;SDS011;12800;53.094;8.778;2023-03-23T02:01:11;16.77;;;9.33;;
24677;SDS011;12800;53.094;8.778;2023-03-23T02:03:40;12.60;;;9.03;;
24677;SDS011;12800;53.094;8.778;2023-03-23T02:06:08;10.93;;;8.67;;
24677;SDS011;12800;53.094;8.778;2023-03-23T02:08:34;9.97;;;8.97;;
24677;SDS011;12800;53.094;8.778;2023-03-23T02:11:01;13.40;;;9.77;;
24677;SDS011;12800;53.094;8.778;2023-03-23T02:13:37;10.37;;;9.27;;
24677;SDS011;12800;53.094;8.778;2023-03-23T02:16:04;11.03;;;9.40;;
24677;SDS011;12800;53.094;8.778;2023-03-23T02:27:15;11.70;;;9.17;;
24677;SDS011;12800;53.094;8.778;2023-03-23T02:35:36;10.77;;;8.80;;
24677;SDS011;12800;53.094;8.778;2023-03-23T02:38:06;11.27;;;8.13;;
24677;SDS011;12800;53.094;8.778;2023-03-23T02:40:42;9.43;;;8.47;;
24677;SDS011;12800;53.094;8.778;2023-03-23T02:43:16;11.57;;;8.50;;
24677;SDS011;12800;53.094;8.778;2023-03-23T02:45:45;10.70;;;8.10;;
24677;SDS011;12800;53.094;8.778;2023-03-23T02:48:11;8.80;;;7.90;;
24677;SDS011;12800;53.094;8.778;2023-03-23T02:50:40;12.77;;;10.00;;
24677;SDS011;12800;53.094;8.778;2023-03-23T02:53:09;9.73;;;8.47;;
24677;SDS011;12800;53.094;8.778;2023-03-23T02:55:39;9.10;;;8.20;;
24677;SDS011;12800;53.094;8.778;2023-03-23T02:58:10;10.53;;;9.17;;
24677;SDS011;12800;53.094;8.778;2023-03-23T03:00:36;11.63;;;9.13;;
24677;SDS011;12800;53.094;8.778;2023-03-23T03:03:03;9.90;;;8.23;;
24677;SDS011;12800;53.094;8.778;2023-03-23T03:05:36;11.63;;;9.37;;
24677;SDS011;12800;53.094;8.778;2023-03-23T03:21:35;9.77;;;7.90;;
24677;SDS011;12800;53.094;8.778;2023-03-23T03:24:03;13.10;;;8.13;;
24677;SDS011;12800;53.094;8.778;2023-03-23T03:26:33;7.53;;;6.83;;
24677;SDS011;12800;53.094;8.778;2023-03-23T03:28:59;9.20;;;7.10;;
24677;SDS011;12800;53.094;8.778;2023-03-23T03:31:30;10.93;;;7.60;;
24677;SDS011;12800;53.094;8.778;2023-03-23T03:34:00;8.37;;;7.50;;
24677;SDS011;12800;53.094;8.778;2023-03-23T03:36:32;9.83;;;7.40;;
24677;SDS011;12800;53.094;8.778;2023-03-23T03:39:00;9.87;;;7.57;;
24677;SDS011;12800;53.094;8.778;2023-03-23T03:41:30;8.37;;;7.43;;
24677;SDS011;12800;53.094;8.778;2023-03-23T03:43:56;9.37;;;7.50;;
24677;SDS011;12800;53.094;8.778;2023-03-23T03:46:21;10.53;;;7.00;;
24677;SDS011;12800;53.094;8.778;2023-03-23T03:48:51;9.53;;;7.50;;
24677;SDS011;12800;53.094;8.778;2023-03-23T03:51:17;8.27;;;7.33;;
24677;SDS011;12800;53.094;8.778;2023-03-23T03:53:43;7.73;;;6.87;;
24677;SDS011;12800;53.094;8.778;2023-03-23T03:56:08;9.60;;;7.63;;
24677;SDS011;12800;53.094;8.778;2023-03-23T03:58:34;10.40;;;7.47;;
24677;SDS011;12800;53.094;8.778;2023-03-23T04:01:01;9.53;;;7.50;;
24677;SDS011;12800;53.094;8.778;2023-03-23T04:03:28;8.57;;;7.07;;
24677;SDS011;12800;53.094;8.778;2023-03-23T04:05:54;9.00;;;7.27;;
24677;SDS011;12800;53.094;8.778;2023-03-23T04:08:23;10.17;;;7.40;;
24677;SDS011;12800;53.094;8.778;2023-03-23T04:10:49;9.97;;;6.87;;
24677;SDS011;12800;53.094;8.778;2023-03-23T04:13:15;7.93;;;6.90;;
24677;SDS011;12800;53.094;8.778;2023-03-23T04:15:41;8.13;;;7.30;;
24677;SDS011;12800;53.094;8.778;2023-03-23T04:18:08;13.20;;;7.00;;
24677;SDS011;12800;53.094;8.778;2023-03-23T04:20:33;8.03;;;6.70;;
24677;SDS011;12800;53.094;8.778;2023-03-23T04:23:00;11.03;;;7.23;;
24677;SDS011;12800;53.094;8.778;2023-03-23T04:25:26;9.47;;;6.90;;
24677;SDS011;12800;53.094;8.778;2023-03-23T04:27:52;9.87;;;6.10;;
24677;SDS011;12800;53.094;8.778;2023-03-23T04:30:22;8.47;;;6.17;;
24677;SDS011;12800;53.094;8.778;2023-03-23T04:32:50;8.27;;;6.40;;
24677;SDS011;12800;53.094;8.778;2023-03-23T04:35:17;7.30;;;5.40;;
24677;SDS011;12800;53.094;8.778;2023-03-23T04:37:45;8.07;;;5.30;;
24677;SDS011;12800;53.094;8.778;2023-03-23T04:40:12;7.60;;;5.40;;
24677;SDS011;12800;53.094;8.778;2023-03-23T04:42:40;7.67;;;5.13;;
24677;SDS011;12800;53.094;8.778;2023-03-23T04:45:10;5.70;;;5.00;;
24677;SDS011;12800;53.094;8.778;2023-03-23T04:47:36;7.23;;;5.30;;
24677;SDS011;12800;53.094;8.778;2023-03-23T04:50:09;6.93;;;5.53;;
24677;SDS011;12800;53.094;8.778;2023-03-23T04:52:37;6.93;;;5.63;;
24677;SDS011;12800;53.094;8.778;2023-03-23T04:55:05;7.33;;;5.37;;
24677;SDS011;12800;53.094;8.778;2023-03-23T04:57:33;5.67;;;4.80;;
24677;SDS011;12800;53.094;8.778;2023-03-23T05:00:00;9.43;;;5.03;;
24677;SDS011;12800;53.094;8.778;2023-03-23T05:02:29;6.90;;;5.07;;
24677;SDS011;12800;53.094;8.778;2023-03-23T05:04:55;6.03;;;4.43;;
24677;SDS011;12800;53.094;8.778;2023-03-23T05:07:22;6.90;;;4.83;;
24677;SDS011;12800;53.094;8.778;2023-03-23T05:09:48;5.63;;;4.37;;
24677;SDS011;12800;53.094;8.778;2023-03-23T05:12:14;5.43;;;4.40;;
24677;SDS011;12800;53.094;8.778;2023-03-23T05:14:41;7.13;;;4.40;;
24677;SDS011;12800;53.094;8.778;2023-03-23T05:17:07;5.53;;;4.50;;
24677;SDS011;12800;53.094;8.778;2023-03-23T05:19:34;6.07;;;4.57;;
24677;SDS011;12800;53.094;8.778;2023-03-23T05:22:01;6.70;;;4.20;;
24677;SDS011;12800;53.094;8.778;2023-03-23T05:24:28;7.90;;;5.00;;
24677;SDS011;12800;53.094;8.778;2023-03-23T05:26:56;6.77;;;4.53;;
24677;SDS011;12800;53.094;8.778;2023-03-23T05:29:22;5.03;;;3.90;;
24677;SDS011;12800;53.094;8.778;2023-03-23T05:31:49;4.47;;;3.43;;
24677;SDS011;12800;53.094;8.778;2023-03-23T05:34:14;4.40;;;3.93;;
24677;SDS011;12800;53.094;8.778;2023-03-23T05:36:41;5.77;;;4.30;;
24677;SDS011;12800;53.094;8.778;2023-03-23T05:39:09;6.33;;;4.60;;
24677;SDS011;12800;53.094;8.778;2023-03-23T05:41:36;5.50;;;4.80;;
24677;SDS011;12800;53.094;8.778;2023-03-23T05:44:02;7.00;;;5.67;;
24677;SDS011;12800;53.094;8.778;2023-03-23T05:46:28;5.83;;;4.40;;
24677;SDS011;12800;53.094;8.778;2023-03-23T05:48:54;6.67;;;4.50;;
24677;SDS011;12800;53.094;8.778;2023-03-23T05:51:20;6.10;;;4.57;;
24677;SDS011;12800;53.094;8.778;2023-03-23T05:53:45;6.03;;;4.63;;
24677;SDS011;12800;53.094;8.778;2023-03-23T05:56:12;7.50;;;4.90;;
24677;SDS011;12800;53.094;8.778;2023-03-23T05:58:38;7.60;;;4.97;;
24677;SDS011;12800;53.094;8.778;2023-03-23T06:01:07;5.40;;;4.37;;
24677;SDS011;12800;53.094;8.778;2023-03-23T06:03:32;5.77;;;4.37;;
24677;SDS011;12800;53.094;8.778;2023-03-23T06:06:01;4.80;;;4.30;;
24677;SDS011;12800;53.094;8.778;2023-03-23T06:08:27;7.53;;;4.60;;
24677;SDS011;12800;53.094;8.778;2023-03-23T06:10:53;6.00;;;4.57;;
24677;SDS011;12800;53.094;8.778;2023-03-23T06:13:20;4.77;;;3.97;;
24677;SDS011;12800;53.094;8.778;2023-03-23T06:15:46;4.97;;;4.00;;
24677;SDS011;12800;53.094;8.778;2023-03-23T06:18:12;6.67;;;4.83;;
24677;SDS011;12800;53.094;8.778;2023-03-23T06:20:38;5.20;;;4.23;;
24677;SDS011;12800;53.094;8.778;2023-03-23T06:23:05;6.33;;;3.87;;
24677;SDS011;12800;53.094;8.778;2023-03-23T06:25:31;6.17;;;3.93;;
24677;SDS011;12800;53.094;8.778;2023-03-23T06:27:58;6.17;;;3.97;;
24677;SDS011;12800;53.094;8.778;2023-03-23T06:30:23;5.33;;;4.10;;
24677;SDS011;12800;53.094;8.778;2023-03-23T06:32:50;7.23;;;4.20;;
24677;SDS011;12800;53.094;8.778;2023-03-23T06:35:16;7.27;;;4.53;;
24677;SDS011;12800;53.094;8.778;2023-03-23T06:37:41;4.27;;;3.87;;
24677;SDS011;12800;53.094;8.778;2023-03-23T06:40:07;5.37;;;3.50;;
24677;SDS011;12800;53.094;8.778;2023-03-23T06:42:34;6.13;;;3.80;;
24677;SDS011;12800;53.094;8.778;2023-03-23T06:45:00;5.33;;;3.30;;
24677;SDS011;12800;53.094;8.778;2023-03-23T06:47:27;6.87;;;4.03;;
24677;SDS011;12800;53.094;8.778;2023-03-23T06:49:56;4.60;;;3.43;;
24677;SDS011;12800;53.094;8.778;2023-03-23T06:52:22;3.90;;;3.33;;
24677;SDS011;12800;53.094;8.778;2023-03-23T06:54:49;4.20;;;3.50;;
24677;SDS011;12800;53.094;8.778;2023-03-23T06:57:15;4.13;;;3.50;;
24677;SDS011;12800;53.094;8.778;2023-03-23T06:59:41;5.97;;;4.10;;
24677;SDS011;12800;53.094;8.778;2023-03-23T07:02:08;6.53;;;3.97;;
24677;SDS011;12800;53.094;8.778;2023-03-23T07:04:36;5.10;;;4.23;;
24677;SDS011;12800;53.094;8.778;2023-03-23T07:07:03;5.27;;;4.17;;
24677;SDS011;12800;53.094;8.778;2023-03-23T07:09:29;6.03;;;4.80;;
24677;SDS011;12800;53.094;8.778;2023-03-23T07:11:55;5.53;;;4.13;;
24677;SDS011;12800;53.094;8.778;2023-03-23T07:14:21;5.27;;;4.57;;
24677;SDS011;12800;53.094;8.778;2023-03-23T07:16:48;5.70;;;4.37;;
24677;SDS011;12800;53.094;8.778;2023-03-23T07:19:14;5.03;;;4.60;;
24677;SDS011;12800;53.094;8.778;2023-03-23T07:21:39;6.13;;;5.00;;
24677;SDS011;12800;53.094;8.778;2023-03-23T07:24:05;7.10;;;5.35;;
24677;SDS011;12800;53.094;8.778;2023-03-23T07:26:35;7.40;;;5.60;;
24677;SDS011;12800;53.094;8.778;2023-03-23T07:29:01;7.57;;;5.77;;
24677;SDS011;12800;53.094;8.778;2023-03-23T07:31:27;2.73;;;2.47;;
24677;SDS011;12800;53.094;8.778;2023-03-23T07:33:52;4.77;;;2.40;;
24677;SDS011;12800;53.094;8.778;2023-03-23T07:36:18;3.93;;;2.37;;
24677;SDS011;12800;53.094;8.778;2023-03-23T07:38:43;2.77;;;1.90;;
24677;SDS011;12800;53.094;8.778;2023-03-23T07:41:09;4.77;;;1.93;;
24677;SDS011;12800;53.094;8.778;2023-03-23T07:43:35;5.03;;;2.10;;
24677;SDS011;12800;53.094;8.778;2023-03-23T07:46:00;2.37;;;1.37;;
24677;SDS011;12800;53.094;8.778;2023-03-23T07:48:26;4.13;;;1.50;;
24677;SDS011;12800;53.094;8.778;2023-03-23T07:50:52;3.87;;;1.33;;
24677;SDS011;12800;53.094;8.778;2023-03-23T07:53:17;4.20;;;1.33;;
24677;SDS011;12800;53.094;8.778;2023-03-23T07:55:43;2.40;;;1.47;;
24677;SDS011;12800;53.094;8.778;2023-03-23T07:58:09;4.33;;;1.43;;
24677;SDS011;12800;53.094;8.778;2023-03-23T08:00:35;2.33;;;1.60;;
24677;SDS011;12800;53.094;8.778;2023-03-23T08:03:00;5.00;;;1.80;;
24677;SDS011;12800;53.094;8.778;2023-03-23T08:05:27;5.73;;;3.00;;
24677;SDS011;12800;53.094;8.778;2023-03-23T08:07:53;8.17;;;3.97;;
24677;SDS011;12800;53.094;8.778;2023-03-23T08:10:20;5.90;;;2.50;;
24677;SDS011;12800;53.094;8.778;2023-03-23T08:12:50;6.50;;;2.23;;
24677;SDS011;12800;53.094;8.778;2023-03-23T08:15:20;6.23;;;3.00;;
24677;SDS011;12800;53.094;8.778;2023-03-23T08:17:47;4.30;;;2.60;;
24677;SDS011;12800;53.094;8.778;2023-03-23T08:20:14;4.67;;;1.97;;
24677;SDS011;12800;53.094;8.778;2023-03-23T08:22:42;3.30;;;1.90;;
24677;SDS011;12800;53.094;8.778;2023-03-23T08:25:10;5.13;;;1.90;;
24677;SDS011;12800;53.094;8.778;2023-03-23T08:27:37;5.67;;;1.60;;
24677;SDS011;12800;53.094;8.778;2023-03-23T08:30:08;5.20;;;1.30;;
24677;SDS011;12800;53.094;8.778;2023-03-23T08:32:39;3.67;;;1.40;;
24677;SDS011;12800;53.094;8.778;2023-03-23T08:35:05;5.17;;;2.10;;
24677;SDS011;12800;53.094;8.778;2023-03-23T08:37:32;5.70;;;1.97;;
24677;SDS011;12800;53.094;8.778;2023-03-23T08:39:57;5.60;;;1.93;;
24677;SDS011;12800;53.094;8.778;2023-03-23T08:42:24;9.83;;;2.40;;
24677;SDS011;12800;53.094;8.778;2023-03-23T08:44:51;6.33;;;2.00;;
24677;SDS011;12800;53.094;8.778;2023-03-23T08:47:17;4.18;;;1.95;;
24677;SDS011;12800;53.094;8.778;2023-03-23T08:49:43;8.57;;;1.73;;
24677;SDS011;12800;53.094;8.778;2023-03-23T08:52:10;7.47;;;1.73;;
24677;SDS011;12800;53.094;8.778;2023-03-23T08:54:36;6.20;;;1.67;;
24677;SDS011;12800;53.094;8.778;2023-03-23T08:57:02;5.30;;;1.43;;
24677;SDS011;12800;53.094;8.778;2023-03-23T08:59:28;4.93;;;1.60;;
24677;SDS011;12800;53.094;8.778;2023-03-23T09:01:54;9.70;;;2.10;;
24677;SDS011;12800;53.094;8.778;2023-03-23T09:04:19;8.38;;;2.92;;
24677;SDS011;12800;53.094;8.778;2023-03-23T09:06:46;8.87;;;4.00;;
24677;SDS011;12800;53.094;8.778;2023-03-23T09:09:12;11.93;;;3.77;;
24677;SDS011;12800;53.094;8.778;2023-03-23T09:11:38;5.17;;;2.77;;
24677;SDS011;12800;53.094;8.778;2023-03-23T09:14:05;10.73;;;2.40;;
24677;SDS011;12800;53.094;8.778;2023-03-23T09:16:32;4.63;;;2.67;;
24677;SDS011;12800;53.094;8.778;2023-03-23T09:18:58;8.27;;;2.13;;
24677;SDS011;12800;53.094;8.778;2023-03-23T09:21:25;9.50;;;2.40;;
24677;SDS011;12800;53.094;8.778;2023-03-23T09:23:52;5.57;;;2.20;;
24677;SDS011;12800;53.094;8.778;2023-03-23T09:26:18;7.23;;;2.10;;
24677;SDS011;12800;53.094;8.778;2023-03-23T09:28:43;9.15;;;2.53;;
24677;SDS011;12800;53.094;8.778;2023-03-23T09:31:10;7.80;;;2.60;;
24677;SDS011;12800;53.094;8.778;2023-03-23T09:33:37;7.18;;;2.50;;
24677;SDS011;12800;53.094;8.778;2023-03-23T09:36:03;7.03;;;2.75;;
24677;SDS011;12800;53.094;8.778;2023-03-23T09:38:30;7.45;;;2.55;;
24677;SDS011;12800;53.094;8.778;2023-03-23T09:41:16;5.97;;;2.20;;
24677;SDS011;12800;53.094;8.778;2023-03-23T09:43:58;6.80;;;1.97;;
24677;SDS011;12800;53.094;8.778;2023-03-23T09:47:16;9.20;;;2.80;;
24677;SDS011;12800;53.094;8.778;2023-03-23T09:49:24;6.28;;;1.98;;
24677;SDS011;12800;53.094;8.778;2023-03-23T09:57:01;6.45;;;2.17;;
24677;SDS011;12800;53.094;8.778;2023-03-23T09:59:36;6.07;;;1.60;;
24677;SDS011;12800;53.094;8.778;2023-03-23T10:02:11;7.63;;;2.13;;
24677;SDS011;12800;53.094;8.778;2023-03-23T10:04:39;5.93;;;1.63;;
24677;SDS011;12800;53.094;8.778;2023-03-23T10:07:19;4.65;;;1.88;;
24677;SDS011;12800;53.094;8.778;2023-03-23T10:09:47;7.70;;;2.25;;
24677;SDS011;12800;53.094;8.778;2023-03-23T10:13:01;4.47;;;1.98;;
24677;SDS011;12800;53.094;8.778;2023-03-23T10:25:38;9.90;;;2.35;;
24677;SDS011;12800;53.094;8.778;2023-03-23T10:28:10;10.98;;;2.88;;
24677;SDS011;12800;53.094;8.778;2023-03-23T10:30:42;9.48;;;2.22;;
24677;SDS011;12800;53.094;8.778;2023-03-23T10:33:29;9.98;;;2.70;;
24677;SDS011;12800;53.094;8.778;2023-03-23T10:38:41;10.15;;;2.33;;
24677;SDS011;12800;53.094;8.778;2023-03-23T10:41:11;10.05;;;2.42;;
24677;SDS011;12800;53.094;8.778;2023-03-23T10:43:47;4.97;;;2.35;;
24677;SDS011;12800;53.094;8.778;2023-03-23T10:49:19;11.25;;;3.83;;
24677;SDS011;12800;53.094;8.778;2023-03-23T10:52:11;11.07;;;4.38;;
24677;SDS011;12800;53.094;8.778;2023-03-23T10:54:54;11.85;;;2.40;;
24677;SDS011;12800;53.094;8.778;2023-03-23T10:57:23;11.90;;;2.75;;
24677;SDS011;12800;53.094;8.778;2023-03-23T11:02:38;8.10;;;2.40;;
24677;SDS011;12800;53.094;8.778;2023-03-23T11:05:13;8.90;;;2.42;;
24677;SDS011;12800;53.094;8.778;2023-03-23T11:07:47;8.45;;;2.33;;
24677;SDS011;12800;53.094;8.778;2023-03-23T11:12:59;11.10;;;2.63;;
24677;SDS011;12800;53.094;8.778;2023-03-23T11:18:00;5.88;;;3.13;;
24677;SDS011;12800;53.094;8.778;2023-03-23T11:20:29;7.10;;;1.92;;
24677;SDS011;12800;53.094;8.778;2023-03-23T11:23:00;4.28;;;2.38;;
24677;SDS011;12800;53.094;8.778;2023-03-23T11:25:33;10.30;;;3.35;;
24677;SDS011;12800;53.094;8.778;2023-03-23T11:28:00;8.77;;;2.92;;
24677;SDS011;12800;53.094;8.778;2023-03-23T11:30:27;6.82;;;3.22;;
24677;SDS011;12800;53.094;8.778;2023-03-23T11:32:58;6.03;;;2.65;;
24677;SDS011;12800;53.094;8.778;2023-03-23T11:35:27;5.53;;;2.47;;
24677;SDS011;12800;53.094;8.778;2023-03-23T11:37:54;6.70;;;2.40;;
24677;SDS011;12800;53.094;8.778;2023-03-23T11:40:25;5.18;;;2.22;;
24677;SDS011;12800;53.094;8.778;2023-03-23T11:45:21;9.77;;;2.67;;
24677;SDS011;12800;53.094;8.778;2023-03-23T11:50:54;7.75;;;2.25;;
24677;SDS011;12800;53.094;8.778;2023-03-23T11:58:42;7.47;;;2.30;;
24677;SDS011;12800;53.094;8.778;2023-03-23T12:12:40;5.22;;;2.28;;
24677;SDS011;12800;53.094;8.778;2023-03-23T12:15:45;6.10;;;1.95;;
24677;SDS011;12800;53.094;8.778;2023-03-23T12:18:40;5.18;;;2.05;;
24677;SDS011;12800;53.094;8.778;2023-03-23T12:22:22;4.57;;;2.20;;
24677;SDS011;12800;53.094;8.778;2023-03-23T12:24:31;3.80;;;2.38;;
24677;SDS011;12800;53.094;8.778;2023-03-23T12:27:19;5.22;;;1.95;;
24677;SDS011;12800;53.094;8.778;2023-03-23T12:30:19;4.70;;;2.22;;
24677;SDS011;12800;53.094;8.778;2023-03-23T12:33:03;6.07;;;2.00;;
24677;SDS011;12800;53.094;8.778;2023-03-23T12:35:45;3.50;;;1.45;;
24677;SDS011;12800;53.094;8.778;2023-03-23T12:41:15;4.75;;;1.80;;
24677;SDS011;12800;53.094;8.778;2023-03-23T12:44:07;2.95;;;1.30;;
24677;SDS011;12800;53.094;8.778;2023-03-23T12:49:24;4.57;;;1.65;;
24677;SDS011;12800;53.094;8.778;2023-03-23T12:52:13;4.80;;;1.63;;
24677;SDS011;12800;53.094;8.778;2023-03-23T12:57:27;8.32;;;4.05;;
24677;SDS011;12800;53.094;8.778;2023-03-23T13:05:29;2.90;;;2.08;;
24677;SDS011;12800;53.094;8.778;2023-03-23T13:08:36;3.40;;;1.70;;
24677;SDS011;12800;53.094;8.778;2023-03-23T13:11:47;2.38;;;1.65;;
24677;SDS011;12800;53.094;8.778;2023-03-23T13:22:01;3.90;;;1.38;;
24677;SDS011;12800;53.094;8.778;2023-03-23T13:25:05;2.88;;;1.10;;
24677;SDS011;12800;53.094;8.778;2023-03-23T13:27:36;2.90;;;1.75;;
24677;SDS011;12800;53.094;8.778;2023-03-23T13:30:02;1.98;;;1.65;;
24677;SDS011;12800;53.094;8.778;2023-03-23T13:32:36;7.65;;;2.47;;
24677;SDS011;12800;53.094;8.778;2023-03-23T13:35:05;5.20;;;2.53;;
24677;SDS011;12800;53.094;8.778;2023-03-23T13:37:40;10.48;;;3.08;;
24677;SDS011;12800;53.094;8.778;2023-03-23T13:40:15;5.43;;;2.10;;
24677;SDS011;12800;53.094;8.778;2023-03-23T13:42:54;3.60;;;1.13;;
24677;SDS011;12800;53.094;8.778;2023-03-23T13:50:57;6.68;;;1.60;;
24677;SDS011;12800;53.094;8.778;2023-03-23T13:53:29;8.38;;;1.48;;
24677;SDS011;12800;53.094;8.778;2023-03-23T13:56:07;6.28;;;1.25;;
24677;SDS011;12800;53.094;8.778;2023-03-23T13:58:43;4.97;;;1.70;;
24677;SDS011;12800;53.094;8.778;2023-03-23T14:01:14;4.80;;;1.42;;
24677;SDS011;12800;53.094;8.778;2023-03-23T14:03:43;5.32;;;1.20;;
24677;SDS011;12800;53.094;8.778;2023-03-23T14:06:19;3.80;;;1.27;;
24677;SDS011;12800;53.094;8.778;2023-03-23T14:08:49;4.68;;;1.85;;
24677;SDS011;12800;53.094;8.778;2023-03-23T14:11:19;4.43;;;1.48;;
24677;SDS011;12800;53.094;8.778;2023-03-23T14:14:07;9.38;;;5.28;;
24677;SDS011;12800;53.094;8.778;2023-03-23T14:16:41;7.72;;;4.85;;
24677;SDS011;12800;53.094;8.778;2023-03-23T14:19:15;7.75;;;4.80;;
24677;SDS011;12800;53.094;8.778;2023-03-23T14:21:51;9.40;;;5.10;;
24677;SDS011;12800;53.094;8.778;2023-03-23T14:24:29;4.23;;;1.90;;
24677;SDS011;12800;53.094;8.778;2023-03-23T14:27:10;5.70;;;2.07;;
24677;SDS011;12800;53.094;8.778;2023-03-23T14:29:44;4.30;;;1.73;;
24677;SDS011;12800;53.094;8.778;2023-03-23T14:32:14;7.17;;;1.47;;
24677;SDS011;12800;53.094;8.778;2023-03-23T14:34:43;3.40;;;1.40;;
24677;SDS011;12800;53.094;8.778;2023-03-23T14:37:11;1.92;;;0.85;;
24677;SDS011;12800;53.094;8.778;2023-03-23T14:39:39;2.63;;;1.30;;
24677;SDS011;12800;53.094;8.778;2023-03-23T14:42:14;3.00;;;1.10;;
24677;SDS011;12800;53.094;8.778;2023-03-23T14:44:43;5.57;;;1.60;;
24677;SDS011;12800;53.094;8.778;2023-03-23T14:47:25;23.98;;;15.98;;
24677;SDS011;12800;53.094;8.778;2023-03-23T14:49:56;9.10;;;5.72;;
24677;SDS011;12800;53.094;8.778;2023-03-23T14:52:27;5.18;;;3.17;;
24677;SDS011;12800;53.094;8.778;2023-03-23T14:54:54;4.57;;;2.08;;
24677;SDS011;12800;53.094;8.778;2023-03-23T14:57:32;3.60;;;1.30;;
24677;SDS011;12800;53.094;8.778;2023-03-23T14:59:58;2.90;;;1.50;;
24677;SDS011;12800;53.094;8.778;2023-03-23T15:02:28;3.17;;;1.27;;
24677;SDS011;12800;53.094;8.778;2023-03-23T15:04:56;5.55;;;1.70;;
24677;SDS011;12800;53.094;8.778;2023-03-23T15:07:51;4.15;;;1.67;;
24677;SDS011;12800;53.094;8.778;2023-03-23T15:10:21;5.32;;;1.45;;
24677;SDS011;12800;53.094;8.778;2023-03-23T15:12:48;4.03;;;1.40;;
24677;SDS011;12800;53.094;8.778;2023-03-23T15:15:26;3.97;;;1.60;;
24677;SDS011;12800;53.094;8.778;2023-03-23T15:17:53;7.00;;;1.63;;
24677;SDS011;12800;53.094;8.778;2023-03-23T15:22:53;3.60;;;1.90;;
24677;SDS011;12800;53.094;8.778;2023-03-23T15:27:52;7.45;;;1.95;;
24677;SDS011;12800;53.094;8.778;2023-03-23T15:32:49;4.28;;;1.83;;
24677;SDS011;12800;53.094;8.778;2023-03-23T15:35:19;7.10;;;2.33;;
24677;SDS011;12800;53.094;8.778;2023-03-23T15:37:47;7.65;;;3.35;;
24677;SDS011;12800;53.094;8.778;2023-03-23T15:40:20;7.03;;;3.83;;
24677;SDS011;12800;53.094;8.778;2023-03-23T15:42:47;11.10;;;4.63;;
24677;SDS011;12800;53.094;8.778;2023-03-23T15:47:52;9.75;;;3.33;;
24677;SDS011;12800;53.094;8.778;2023-03-23T15:52:45;6.88;;;1.95;;
24677;SDS011;12800;53.094;8.778;2023-03-23T15:55:36;6.22;;;2.22;;
24677;SDS011;12800;53.094;8.778;2023-03-23T15:58:12;5.72;;;1.80;;
24677;SDS011;12800;53.094;8.778;2023-03-23T16:00:39;8.43;;;1.63;;
24677;SDS011;12800;53.094;8.778;2023-03-23T16:03:07;7.97;;;2.15;;
24677;SDS011;12800;53.094;8.778;2023-03-23T16:05:36;10.02;;;2.30;;
24677;SDS011;12800;53.094;8.778;2023-03-23T16:08:02;4.82;;;1.60;;
24677;SDS011;12800;53.094;8.778;2023-03-23T16:10:28;7.72;;;1.80;;
24677;SDS011;12800;53.094;8.778;2023-03-23T16:12:54;27.17;;;17.73;;
24677;SDS011;12800;53.094;8.778;2023-03-23T16:15:20;5.20;;;1.70;;
24677;SDS011;12800;53.094;8.778;2023-03-23T16:17:46;6.68;;;1.40;;
24677;SDS011;12800;53.094;8.778;2023-03-23T16:20:13;5.07;;;1.20;;
24677;SDS011;12800;53.094;8.778;2023-03-23T16:22:40;3.25;;;1.15;;
24677;SDS011;12800;53.094;8.778;2023-03-23T16:25:07;3.78;;;1.48;;
24677;SDS011;12800;53.094;8.778;2023-03-23T16:27:33;6.72;;;1.77;;
24677;SDS011;12800;53.094;8.778;2023-03-23T16:29:58;4.57;;;1.13;;
24677;SDS011;12800;53.094;8.778;2023-03-23T16:32:27;5.25;;;1.30;;
24677;SDS011;12800;53.094;8.778;2023-03-23T16:34:53;6.80;;;1.85;;
24677;SDS011;12800;53.094;8.778;2023-03-23T16:37:18;5.82;;;1.23;;
24677;SDS011;12800;53.094;8.778;2023-03-23T16:39:45;2.80;;;1.00;;
24677;SDS011;12800;53.094;8.778;2023-03-23T16:42:10;6.20;;;1.45;;
24677;SDS011;12800;53.094;8.778;2023-03-23T16:44:36;4.63;;;1.30;;
24677;SDS011;12800;53.094;8.778;2023-03-23T16:47:01;8.05;;;1.55;;
24677;SDS011;12800;53.094;8.778;2023-03-23T16:49:27;4.03;;;0.95;;
24677;SDS011;12800;53.094;8.778;2023-03-23T16:51:53;4.05;;;1.40;;
24677;SDS011;12800;53.094;8.778;2023-03-23T16:54:18;4.63;;;1.50;;
24677;SDS011;12800;53.094;8.778;2023-03-23T16:56:44;3.22;;;1.20;;
24677;SDS011;12800;53.094;8.778;2023-03-23T16:59:11;3.88;;;1.30;;
24677;SDS011;12800;53.094;8.778;2023-03-23T17:01:37;7.40;;;1.33;;
24677;SDS011;12800;53.094;8.778;2023-03-23T17:04:03;3.55;;;1.20;;